Time;durP1;ratioP1;P1;durP2;ratioP2;P2;SDS_P1;SDS_P2;PMS_P1;PMS_P2;Temp;Humidity;BMP_temperature;BMP_pressure;BME280_temperature;BME280_humidity;BME280_pressure;Samples;Min_cycle;Max_cycle;Signal;HPM_P1;HPM_P2
2023/04/21 00:01:18;;;;;;;7.43;2.07;;;;;;;6.60;100.00;95928.13;5036444;28;20880;-69
2023/04/21 00:03:46;;;;;;;3.40;3.13;;;;;;;6.67;100.00;95934.41;5035993;28;20229;-71
2023/04/21 00:06:13;;;;;;;2.73;1.97;;;;;;;6.73;100.00;95928.50;5036108;28;20205;-70
2023/04/21 00:08:39;;;;;;;1.37;1.07;;;;;;;6.75;100.00;95921.31;5036158;28;20231;-70
2023/04/21 00:11:08;;;;;;;2.07;1.93;;;;;;;6.93;100.00;95916.75;5036289;28;20288;-69
2023/04/21 00:13:34;;;;;;;4.37;2.73;;;;;;;6.85;100.00;95916.75;5035866;28;20798;-69
2023/04/21 00:16:01;;;;;;;4.70;2.63;;;;;;;6.80;100.00;95913.78;5036082;28;20211;-70
2023/04/21 00:18:28;;;;;;;2.97;2.40;;;;;;;6.76;100.00;95907.25;5035712;28;20205;-70
2023/04/21 00:20:54;;;;;;;2.17;1.60;;;;;;;6.85;100.00;95904.47;5037997;28;20288;-70
2023/04/21 00:23:20;;;;;;;3.20;2.33;;;;;;;6.84;100.00;95900.19;5039180;28;20220;-70
2023/04/21 00:25:47;;;;;;;2.70;2.17;;;;;;;6.86;100.00;95902.66;5039696;28;20284;-70
2023/04/21 00:28:15;;;;;;;2.00;1.80;;;;;;;6.88;100.00;95906.75;5039639;28;20205;-70
2023/04/21 00:30:41;;;;;;;1.33;1.23;;;;;;;6.89;100.00;95902.34;5039620;28;20236;-69
2023/04/21 00:33:07;;;;;;;2.83;1.67;;;;;;;6.91;100.00;95903.81;5039326;28;20221;-70
2023/04/21 00:35:34;;;;;;;1.63;1.53;;;;;;;6.98;100.00;95901.38;5040192;28;20211;-69
2023/04/21 00:38:00;;;;;;;3.30;3.00;;;;;;;7.01;100.00;95890.56;5038656;28;20730;-70
2023/04/21 00:40:27;;;;;;;1.50;1.40;;;;;;;7.01;100.00;95890.56;5039422;28;20316;-69
2023/04/21 00:42:54;;;;;;;2.13;1.50;;;;;;;6.92;100.00;95891.53;5039470;28;21152;-69
2023/04/21 00:45:21;;;;;;;2.37;2.10;;;;;;;7.02;100.00;95892.19;5039296;28;20205;-71
2023/04/21 00:47:48;;;;;;;2.53;2.00;;;;;;;6.88;100.00;95895.47;5039506;28;20209;-71
2023/04/21 00:50:14;;;;;;;1.30;1.27;;;;;;;6.86;100.00;95902.66;5039799;28;20655;-69
2023/04/21 00:52:45;;;;;;;3.00;1.57;;;;;;;6.87;100.00;95902.50;5039337;28;20651;-71
2023/04/21 00:55:12;;;;;;;4.43;3.00;;;;;;;6.83;100.00;95901.16;5039377;28;20209;-70
2023/04/21 00:57:39;;;;;;;2.80;1.43;;;;;;;6.91;100.00;95900.38;5039196;28;20212;-70
2023/04/21 01:00:09;;;;;;;2.17;1.97;;;;;;;6.96;100.00;95898.06;5038844;28;20241;-70
2023/04/21 01:02:38;;;;;;;3.07;1.17;;;;;;;7.07;100.00;95887.28;5038879;28;20205;-69
2023/04/21 01:05:07;;;;;;;1.90;1.67;;;;;;;7.07;100.00;95892.53;5039123;28;20209;-70
2023/04/21 01:07:34;;;;;;;2.53;2.33;;;;;;;6.96;100.00;95888.44;5038978;28;20232;-70
2023/04/21 01:10:00;;;;;;;2.87;2.67;;;;;;;6.99;100.00;95882.06;5038705;28;20201;-69
2023/04/21 01:12:27;;;;;;;1.23;1.20;;;;;;;7.06;100.00;95872.53;5038540;28;20198;-69
2023/04/21 01:14:53;;;;;;;1.50;1.30;;;;;;;7.03;100.00;95875.50;5039143;28;20217;-71
2023/04/21 01:17:20;;;;;;;4.87;3.03;;;;;;;7.05;100.00;95870.91;5038258;28;20688;-70
2023/04/21 01:19:49;;;;;;;2.33;2.20;;;;;;;7.02;100.00;95866.81;5038781;28;20201;-70
2023/04/21 01:22:17;;;;;;;1.80;1.70;;;;;;;7.08;100.00;95867.97;5038957;28;20226;-69
2023/04/21 01:24:44;;;;;;;4.00;2.47;;;;;;;7.13;100.00;95873.50;5038666;28;20623;-71
2023/04/21 01:27:11;;;;;;;4.17;2.87;;;;;;;7.16;100.00;95865.34;5038365;28;20201;-69
2023/04/21 01:29:39;;;;;;;4.70;3.20;;;;;;;7.19;100.00;95867.63;5038403;28;20428;-69
2023/04/21 01:32:07;;;;;;;1.73;1.43;;;;;;;7.13;100.00;95865.66;5038296;28;20666;-71
2023/04/21 01:34:34;;;;;;;2.00;1.90;;;;;;;6.96;100.00;95858.78;5038651;28;20220;-70
2023/04/21 01:37:00;;;;;;;2.30;1.53;;;;;;;7.05;100.00;95849.94;5038375;28;20205;-69
2023/04/21 01:39:28;;;;;;;1.33;1.23;;;;;;;7.03;100.00;95836.22;5038230;28;20586;-70
2023/04/21 01:41:56;;;;;;;0.83;0.83;;;;;;;6.90;100.00;95836.69;5038302;28;20201;-70
2023/04/21 01:44:23;;;;;;;1.77;1.67;;;;;;;6.91;100.00;95832.28;5038155;28;20236;-70
2023/04/21 01:46:50;;;;;;;2.93;1.03;;;;;;;6.87;100.00;95825.72;5038536;28;20204;-70
2023/04/21 01:49:17;;;;;;;4.30;3.23;;;;;;;6.67;100.00;95827.88;5038092;28;20648;-70
2023/04/21 01:51:43;;;;;;;4.00;1.43;;;;;;;6.80;100.00;95835.25;5037870;28;20213;-70
2023/04/21 01:54:10;;;;;;;1.17;1.07;;;;;;;6.76;100.00;95842.59;5038008;28;20248;-71
2023/04/21 01:56:37;;;;;;;2.93;2.07;;;;;;;6.74;100.00;95852.41;5038885;28;20205;-70
2023/04/21 01:59:04;;;;;;;2.10;1.43;;;;;;;6.66;100.00;95854.22;5037598;28;20205;-70
2023/04/21 02:01:30;;;;;;;2.50;2.30;;;;;;;6.71;100.00;95863.22;5037666;28;20201;-71
2023/04/21 02:03:56;;;;;;;4.37;1.93;;;;;;;6.75;100.00;95853.22;5039438;28;20221;-71
2023/04/21 02:06:23;;;;;;;1.50;1.40;;;;;;;6.74;100.00;95856.81;5038096;28;20197;-69
2023/04/21 02:08:49;;;;;;;3.13;2.37;;;;;;;6.72;100.00;95854.38;5036919;28;20201;-69
2023/04/21 02:11:16;;;;;;;2.10;1.73;;;;;;;6.74;100.00;95841.13;5038484;28;20594;-70
2023/04/21 02:13:43;;;;;;;3.23;1.93;;;;;;;6.86;100.00;95837.19;5037903;28;20221;-70
2023/04/21 02:16:10;;;;;;;2.53;1.80;;;;;;;6.85;100.00;95827.72;5037581;28;20205;-70
2023/04/21 02:18:38;;;;;;;1.77;1.67;;;;;;;6.77;100.00;95819.84;5037730;28;20209;-71
2023/04/21 02:21:06;;;;;;;4.33;1.40;;;;;;;6.61;100.00;95813.81;5037601;28;21292;-71
2023/04/21 02:23:32;;;;;;;1.73;1.63;;;;;;;6.71;100.00;95823.13;5036966;28;20279;-71
2023/04/21 02:25:59;;;;;;;2.43;1.53;;;;;;;6.73;100.00;95829.00;5037889;28;20197;-71
2023/04/21 02:28:25;;;;;;;5.17;3.43;;;;;;;6.73;100.00;95836.84;5037371;28;20206;-71
2023/04/21 02:30:53;;;;;;;1.77;1.60;;;;;;;6.76;100.00;95849.66;5036808;28;20692;-70
2023/04/21 02:33:19;;;;;;;2.37;2.17;;;;;;;6.71;100.00;95857.16;5037585;28;20228;-70
2023/04/21 02:35:46;;;;;;;1.60;1.47;;;;;;;6.74;100.00;95862.88;5037811;28;20300;-70
2023/04/21 02:38:12;;;;;;;2.57;1.77;;;;;;;6.78;100.00;95856.34;5036626;28;20216;-69
2023/04/21 02:40:39;;;;;;;7.77;1.43;;;;;;;6.89;100.00;95847.34;5037068;28;20296;-70
2023/04/21 02:43:06;;;;;;;3.80;2.17;;;;;;;6.78;100.00;95842.41;5036621;28;20278;-71
2023/04/21 02:45:33;;;;;;;1.83;0.90;;;;;;;6.68;100.00;95847.84;5037580;28;20570;-71
2023/04/21 02:48:00;;;;;;;4.83;2.00;;;;;;;6.80;100.00;95841.28;5036302;28;21001;-71
2023/04/21 02:50:27;;;;;;;2.40;1.83;;;;;;;6.72;100.00;95835.22;5036633;28;20201;-71
2023/04/21 02:52:53;;;;;;;2.73;1.87;;;;;;;6.87;100.00;95830.97;5037241;28;20220;-70
2023/04/21 02:55:21;;;;;;;2.50;2.27;;;;;;;6.97;100.00;95821.16;5037530;28;20575;-70
2023/04/21 02:57:47;;;;;;;3.17;1.83;;;;;;;6.97;100.00;95815.91;5034113;28;20201;-70
2023/04/21 03:00:15;;;;;;;3.13;2.50;;;;;;;6.92;100.00;95826.06;5036681;28;20206;-69
2023/04/21 03:02:41;;;;;;;5.40;2.80;;;;;;;6.84;100.00;95826.06;5037362;28;20614;-70
2023/04/21 03:05:11;;;;;;;2.23;2.07;;;;;;;7.07;100.00;95827.03;5036900;28;20233;-69
2023/04/21 03:07:38;;;;;;;2.17;1.77;;;;;;;7.00;100.00;95820.81;5036152;28;20658;-71
2023/04/21 03:10:05;;;;;;;2.57;2.33;;;;;;;7.03;100.00;95825.72;5037024;28;20205;-69
2023/04/21 03:12:31;;;;;;;2.07;1.93;;;;;;;6.93;100.00;95830.31;5036634;28;20228;-70
2023/04/21 03:14:58;;;;;;;1.80;1.53;;;;;;;6.95;100.00;95828.34;5036437;28;20201;-70
2023/04/21 03:17:24;;;;;;;2.00;1.90;;;;;;;6.99;100.00;95824.44;5036445;28;20197;-71
2023/04/21 03:19:51;;;;;;;3.03;2.83;;;;;;;6.90;100.00;95814.94;5037400;28;20205;-71
2023/04/21 03:22:18;;;;;;;0.83;0.83;;;;;;;6.99;100.00;95817.38;5036325;28;20212;-70
2023/04/21 03:24:45;;;;;;;2.23;2.03;;;;;;;6.80;100.00;95824.75;5035936;28;20225;-70
2023/04/21 03:27:11;;;;;;;2.57;2.37;;;;;;;6.75;100.00;95821.81;5037078;28;20832;-70
2023/04/21 03:29:38;;;;;;;1.37;1.27;;;;;;;6.63;100.00;95828.34;5035988;28;20201;-69
2023/04/21 03:32:04;;;;;;;3.50;1.63;;;;;;;6.72;100.00;95827.34;5036510;28;20209;-70
2023/04/21 03:34:30;;;;;;;3.90;1.73;;;;;;;6.69;100.00;95827.69;5036902;28;20240;-71
2023/04/21 03:36:57;;;;;;;2.03;1.73;;;;;;;6.59;100.00;95816.56;5036279;28;20599;-70
2023/04/21 03:39:25;;;;;;;0.60;0.60;;;;;;;6.60;100.00;95826.06;5035965;28;20212;-70
2023/04/21 03:41:51;;;;;;;2.37;2.10;;;;;;;6.65;100.00;95829.00;5036541;28;20692;-71
2023/04/21 03:44:17;;;;;;;1.43;1.33;;;;;;;6.60;100.00;95828.69;5036404;28;20228;-69
2023/04/21 03:46:44;;;;;;;1.67;1.10;;;;;;;6.36;100.00;95833.88;5036348;28;20208;-69
2023/04/21 03:49:10;;;;;;;2.40;1.73;;;;;;;6.47;100.00;95838.00;5036349;28;20205;-70
2023/04/21 03:51:37;;;;;;;1.83;1.10;;;;;;;6.50;100.00;95838.47;5036420;28;20961;-71
2023/04/21 03:54:03;;;;;;;2.10;1.67;;;;;;;6.57;100.00;95844.72;5036391;28;20213;-71
2023/04/21 03:56:31;;;;;;;7.00;1.47;;;;;;;6.69;100.00;95848.63;5040494;28;20208;-71
2023/04/21 03:58:57;;;;;;;2.40;1.87;;;;;;;6.67;100.00;95854.03;5040156;28;20200;-71
2023/04/21 04:01:24;;;;;;;1.67;1.53;;;;;;;6.64;100.00;95856.16;5040341;28;20204;-70
2023/04/21 04:03:50;;;;;;;0.70;0.70;;;;;;;6.67;100.00;95861.09;5040237;28;20243;-69
2023/04/21 04:06:17;;;;;;;1.80;0.97;;;;;;;6.76;100.00;95862.72;5040627;28;21219;-69
2023/04/21 04:08:43;;;;;;;3.40;1.67;;;;;;;6.76;100.00;95860.13;5039383;28;20223;-70
2023/04/21 04:11:09;;;;;;;2.97;1.80;;;;;;;6.76;100.00;95865.34;5040009;28;20209;-70
2023/04/21 04:13:37;;;;;;;4.13;2.47;;;;;;;6.80;100.00;95871.91;5040389;28;20225;-69
2023/04/21 04:16:04;;;;;;;1.40;1.30;;;;;;;6.77;100.00;95872.19;5040264;28;20204;-69
2023/04/21 04:18:31;;;;;;;1.30;1.23;;;;;;;6.76;100.00;95875.81;5038618;28;20204;-70
2023/04/21 04:20:57;;;;;;;4.40;2.47;;;;;;;6.75;100.00;95866.31;5040405;28;20197;-70
2023/04/21 04:23:23;;;;;;;1.80;1.70;;;;;;;6.68;100.00;95863.53;5039439;28;20231;-71
2023/04/21 04:25:50;;;;;;;0.83;0.83;;;;;;;6.41;100.00;95849.09;5039683;28;20232;-71
2023/04/21 04:28:17;;;;;;;2.37;1.80;;;;;;;6.51;100.00;95853.19;5040239;28;20205;-69
2023/04/21 04:30:45;;;;;;;3.33;2.77;;;;;;;6.43;100.00;95850.59;5039875;28;20669;-70
2023/04/21 04:33:11;;;;;;;1.47;1.40;;;;;;;6.55;100.00;95862.38;5038647;28;20925;-70
2023/04/21 04:35:38;;;;;;;1.37;1.17;;;;;;;6.59;100.00;95862.88;5039744;28;20269;-70
2023/04/21 04:38:06;;;;;;;1.67;1.57;;;;;;;6.60;100.00;95864.50;5039540;28;20596;-71
2023/04/21 04:40:33;;;;;;;3.53;3.13;;;;;;;6.39;100.00;95864.97;5039365;28;20255;-70
2023/04/21 04:43:00;;;;;;;4.20;1.63;;;;;;;6.54;100.00;95855.47;5039082;28;20261;-69
2023/04/21 04:45:27;;;;;;;0.53;0.53;;;;;;;6.32;100.00;95866.56;5039594;28;20213;-71
2023/04/21 04:47:55;;;;;;;1.53;1.43;;;;;;;6.56;100.00;95864.00;5039096;28;20201;-70
2023/04/21 04:50:21;;;;;;;1.10;1.03;;;;;;;6.40;100.00;95864.00;5039055;28;20688;-69
2023/04/21 04:52:48;;;;;;;1.60;1.27;;;;;;;6.52;100.00;95875.78;5038874;28;20224;-69
2023/04/21 04:55:15;;;;;;;2.63;1.53;;;;;;;6.60;100.00;95878.41;5039430;28;20584;-70
2023/04/21 04:57:41;;;;;;;2.43;1.53;;;;;;;6.58;100.00;95893.47;5038814;28;20212;-70
2023/04/21 05:00:11;;;;;;;1.07;1.07;;;;;;;6.62;100.00;95879.06;5039507;28;20209;-70
2023/04/21 05:02:37;;;;;;;1.67;1.43;;;;;;;6.45;100.00;95885.25;5039205;28;20339;-69
2023/04/21 05:05:07;;;;;;;1.10;1.07;;;;;;;6.60;100.00;95881.03;5038347;28;20232;-70
2023/04/21 05:07:34;;;;;;;2.47;1.27;;;;;;;6.61;100.00;95890.53;5037886;28;20255;-70
2023/04/21 05:10:03;;;;;;;4.03;1.30;;;;;;;6.48;100.00;95898.03;5039127;28;20204;-70
2023/04/21 05:12:29;;;;;;;1.20;1.17;;;;;;;6.44;100.00;95901.09;5039194;28;20193;-71
2023/04/21 05:14:56;;;;;;;0.97;0.97;;;;;;;6.38;100.00;95907.00;5038799;28;20197;-70
2023/04/21 05:17:22;;;;;;;1.90;1.17;;;;;;;6.48;100.00;95905.88;5038536;28;20197;-69
2023/04/21 05:19:49;;;;;;;1.93;1.83;;;;;;;6.54;100.00;95910.44;5038846;28;20208;-71
2023/04/21 05:22:16;;;;;;;1.87;1.07;;;;;;;6.54;100.00;95912.25;5038505;28;20205;-72
2023/04/21 05:24:43;;;;;;;2.40;1.53;;;;;;;6.34;100.00;95911.72;5039657;28;20229;-72
2023/04/21 05:27:09;;;;;;;3.50;1.40;;;;;;;6.58;100.00;95917.03;5038641;28;20205;-71
2023/04/21 05:29:36;;;;;;;3.27;2.00;;;;;;;6.64;100.00;95916.38;5037744;28;20417;-70
2023/04/21 05:32:02;;;;;;;0.70;0.70;;;;;;;6.68;100.00;95917.69;5039071;28;20559;-70
2023/04/21 05:34:29;;;;;;;2.80;1.90;;;;;;;6.65;100.00;95906.72;5038325;28;20782;-71
2023/04/21 05:36:55;;;;;;;0.97;0.87;;;;;;;6.77;100.00;95907.06;5038799;28;20209;-69
2023/04/21 05:39:23;;;;;;;1.20;0.97;;;;;;;6.98;100.00;95907.41;5038352;28;20202;-70
2023/04/21 05:41:50;;;;;;;1.67;1.57;;;;;;;7.08;100.00;95925.59;5038267;28;20209;-71
2023/04/21 05:44:16;;;;;;;2.67;1.87;;;;;;;7.16;100.00;95923.78;5038200;28;20229;-69
2023/04/21 05:46:43;;;;;;;2.10;1.87;;;;;;;7.38;100.00;95931.81;5038870;28;20208;-71
2023/04/21 05:49:09;;;;;;;2.20;1.33;;;;;;;7.34;100.00;95927.88;5037626;28;20212;-72
2023/04/21 05:51:35;;;;;;;1.17;1.13;;;;;;;7.61;100.00;95916.22;5038334;28;20212;-70
2023/04/21 05:54:02;;;;;;;2.30;1.47;;;;;;;7.68;100.00;95914.56;5038815;28;20221;-72
2023/04/21 05:56:30;;;;;;;0.87;0.87;;;;;;;7.99;100.00;95901.38;5038013;28;20208;-71
2023/04/21 05:58:56;;;;;;;1.20;1.10;;;;;;;8.00;100.00;95897.72;5037332;28;20197;-70
2023/04/21 06:01:23;;;;;;;4.63;1.47;;;;;;;7.78;100.00;95891.56;5038941;28;20210;-72
2023/04/21 06:03:49;;;;;;;1.63;1.53;;;;;;;7.74;100.00;95898.16;5038357;28;20217;-71
2023/04/21 06:06:16;;;;;;;1.77;1.53;;;;;;;7.72;100.00;95902.75;5037817;28;20318;-70
2023/04/21 06:08:42;;;;;;;3.40;0.90;;;;;;;8.00;100.00;95902.19;5037850;28;20208;-71
2023/04/21 06:11:09;;;;;;;3.50;3.23;;;;;;;7.75;100.00;95900.63;5037910;28;20205;-72
2023/04/21 06:13:37;;;;;;;1.83;0.93;;;;;;;8.05;100.00;95892.00;5037681;28;20224;-70
2023/04/21 06:16:03;;;;;;;1.60;1.33;;;;;;;8.25;100.00;95895.84;5038414;28;20197;-71
2023/04/21 06:18:30;;;;;;;3.80;1.60;;;;;;;8.54;100.00;95889.81;5036277;28;20200;-72
2023/04/21 06:20:56;;;;;;;2.13;1.73;;;;;;;8.59;100.00;95890.13;5037667;28;20198;-71
2023/04/21 06:23:23;;;;;;;2.00;1.03;;;;;;;8.36;100.00;95892.88;5037456;28;20258;-73
2023/04/21 06:25:59;;;;;;;1.63;1.23;;;;;;;8.68;100.00;95881.19;5037613;28;20584;-71
2023/04/21 06:28:26;;;;;;;1.27;1.17;;;;;;;8.52;100.00;95881.28;5036817;28;20225;-71
2023/04/21 06:30:54;;;;;;;2.83;1.80;;;;;;;8.64;100.00;95872.03;5037618;28;20204;-70
2023/04/21 06:33:20;;;;;;;1.83;1.37;;;;;;;8.47;100.00;95887.25;5037423;28;20701;-70
2023/04/21 06:35:47;;;;;;;2.60;1.73;;;;;;;8.70;100.00;95876.56;5037551;28;20937;-70
2023/04/21 06:38:13;;;;;;;5.67;2.07;;;;;;;8.86;100.00;95871.22;5036431;28;20213;-70
2023/04/21 06:40:39;;;;;;;2.47;2.27;;;;;;;8.73;100.00;95865.75;5037097;28;20232;-70
2023/04/21 06:43:06;;;;;;;5.57;2.57;;;;;;;8.60;100.00;95865.50;5036391;28;20588;-69
2023/04/21 06:45:32;;;;;;;1.97;1.27;;;;;;;8.77;100.00;95846.00;5036963;28;21111;-70
2023/04/21 06:48:01;;;;;;;4.10;2.87;;;;;;;8.70;100.00;95852.13;5033272;28;20201;-71
2023/04/21 06:50:27;;;;;;;3.43;2.37;;;;;;;8.47;100.00;95853.09;5035433;28;20286;-70
2023/04/21 06:52:54;;;;;;;3.93;2.40;;;;;;;8.37;100.00;95853.31;5035120;28;20236;-70
2023/04/21 06:55:20;;;;;;;3.47;2.57;;;;;;;8.40;100.00;95850.38;5035384;28;20201;-70
2023/04/21 06:57:47;;;;;;;2.63;2.43;;;;;;;8.46;100.00;95847.03;5034899;28;20201;-70
2023/04/21 07:00:14;;;;;;;3.80;2.50;;;;;;;8.45;100.00;95847.19;5034707;28;20202;-71
2023/04/21 07:02:41;;;;;;;2.07;1.27;;;;;;;8.46;100.00;95841.78;5035390;28;20205;-69
2023/04/21 07:05:09;;;;;;;3.47;1.53;;;;;;;8.40;100.00;95836.41;5033309;28;20407;-70
2023/04/21 07:07:36;;;;;;;3.27;1.33;;;;;;;8.49;100.00;95842.25;5034709;28;20205;-69
2023/04/21 07:10:03;;;;;;;8.23;2.53;;;;;;;8.58;100.00;95835.97;5034864;28;20206;-71
2023/04/21 07:12:29;;;;;;;3.70;2.23;;;;;;;8.67;100.00;95840.16;5036617;28;20201;-71
2023/04/21 07:14:55;;;;;;;2.80;1.83;;;;;;;8.87;100.00;95846.59;5036316;28;20193;-70
2023/04/21 07:17:22;;;;;;;2.53;2.07;;;;;;;8.90;100.00;95848.06;5034301;28;20201;-70
2023/04/21 07:19:48;;;;;;;1.10;1.10;;;;;;;8.96;100.00;95861.28;5035728;28;20205;-69
2023/04/21 07:22:16;;;;;;;5.50;3.23;;;;;;;9.26;100.00;95857.75;5036290;28;20300;-70
2023/04/21 07:24:43;;;;;;;4.70;3.07;;;;;;;9.05;100.00;95862.88;5034429;28;20227;-70
2023/04/21 07:27:09;;;;;;;3.07;2.13;;;;;;;9.23;100.00;95858.91;5036059;28;20236;-70
2023/04/21 07:29:36;;;;;;;3.57;2.83;;;;;;;9.01;100.00;95853.69;5035020;28;20205;-70
2023/04/21 07:32:02;;;;;;;3.37;1.23;;;;;;;9.45;100.00;95842.28;5035459;28;20214;-70
2023/04/21 07:34:29;;;;;;;3.77;2.77;;;;;;;9.71;100.00;95840.84;5036154;28;20246;-70
2023/04/21 07:36:56;;;;;;;1.20;0.93;;;;;;;9.73;100.00;95832.78;5035752;28;20769;-69
2023/04/21 07:39:25;;;;;;;2.40;1.20;;;;;;;9.76;100.00;95829.75;5035307;28;20197;-69
2023/04/21 07:41:51;;;;;;;2.37;1.90;;;;;;;9.96;100.00;95838.78;5035365;28;20205;-69
2023/04/21 07:44:17;;;;;;;1.73;1.63;;;;;;;9.91;100.00;95836.66;5035945;28;21125;-70
2023/04/21 07:46:44;;;;;;;2.10;1.73;;;;;;;9.66;100.00;95836.31;5035516;28;20221;-70
2023/04/21 07:49:10;;;;;;;1.77;1.50;;;;;;;10.00;100.00;95837.41;5034989;28;20220;-70
2023/04/21 07:51:37;;;;;;;1.57;1.47;;;;;;;10.06;100.00;95842.75;5035915;28;20197;-69
2023/04/21 07:54:03;;;;;;;5.20;1.90;;;;;;;9.73;100.00;95841.47;5035651;28;20232;-70
2023/04/21 07:56:31;;;;;;;2.03;1.83;;;;;;;9.85;100.00;95849.72;5036195;28;20210;-70
2023/04/21 07:58:57;;;;;;;3.53;1.87;;;;;;;9.99;100.00;95852.41;5035424;28;20205;-70
2023/04/21 08:01:24;;;;;;;1.40;1.30;;;;;;;9.81;100.00;95849.28;5035992;28;20201;-69
2023/04/21 08:03:50;;;;;;;3.30;1.30;;;;;;;9.86;100.00;95851.38;5035699;28;20225;-70
2023/04/21 08:06:17;;;;;;;1.43;1.03;;;;;;;10.27;100.00;95850.72;5035185;28;20229;-70
2023/04/21 08:08:43;;;;;;;1.83;1.47;;;;;;;10.32;100.00;95843.91;5035539;28;20718;-70
2023/04/21 08:11:10;;;;;;;1.83;1.73;;;;;;;10.35;100.00;95837.47;5035456;28;20205;-70
2023/04/21 08:13:37;;;;;;;1.43;1.33;;;;;;;10.48;100.00;95845.50;5035140;28;20236;-70
2023/04/21 08:16:04;;;;;;;6.00;2.67;;;;;;;10.46;100.00;95845.69;5036185;28;20205;-70
2023/04/21 08:18:31;;;;;;;2.73;2.33;;;;;;;10.40;100.00;95843.00;5036120;28;20619;-70
2023/04/21 08:20:57;;;;;;;1.73;1.63;;;;;;;10.30;100.00;95850.38;5034843;28;20201;-70
2023/04/21 08:23:24;;;;;;;2.37;1.40;;;;;;;10.57;100.00;95845.19;5035203;28;20221;-70
2023/04/21 08:25:50;;;;;;;2.20;1.33;;;;;;;10.54;100.00;95837.69;5037125;28;20220;-69
2023/04/21 08:28:17;;;;;;;1.93;1.47;;;;;;;10.83;100.00;95842.03;5035561;28;20206;-70
2023/04/21 08:30:45;;;;;;;5.53;2.50;;;;;;;10.85;100.00;95840.84;5035742;28;20212;-71
2023/04/21 08:33:12;;;;;;;0.93;0.93;;;;;;;10.87;100.00;95835.38;5036226;28;20340;-70
2023/04/21 08:35:39;;;;;;;3.23;2.23;;;;;;;11.09;100.00;95843.09;5036102;28;20197;-70
2023/04/21 08:38:07;;;;;;;3.43;1.50;;;;;;;11.08;100.00;95838.81;5034969;28;20221;-70
2023/04/21 08:40:35;;;;;;;1.23;1.20;;;;;;;11.45;100.00;95834.06;5035740;28;20312;-70
2023/04/21 08:43:02;;;;;;;2.33;1.30;;;;;;;11.51;100.00;95833.31;5039547;28;20256;-69
2023/04/21 08:45:28;;;;;;;3.10;2.83;;;;;;;11.59;100.00;95830.53;5039051;28;20221;-70
2023/04/21 08:47:59;;;;;;;2.03;1.90;;;;;;;11.55;100.00;95831.13;5037369;28;20202;-70
2023/04/21 08:50:28;;;;;;;2.63;2.20;;;;;;;11.93;100.00;95825.28;5037939;28;20214;-71
2023/04/21 08:52:55;;;;;;;1.83;1.70;;;;;;;11.83;100.00;95812.41;5037310;28;20232;-71
2023/04/21 08:55:26;;;;;;;3.17;1.77;;;;;;;11.89;100.00;95822.19;5038858;28;20197;-70
2023/04/21 08:57:52;;;;;;;3.87;2.03;;;;;;;12.05;100.00;95821.88;5038414;28;20201;-70
2023/04/21 09:00:19;;;;;;;3.13;2.63;;;;;;;12.33;100.00;95826.09;5037567;28;20213;-71
2023/04/21 09:02:58;;;;;;;1.47;1.37;;;;;;;12.49;98.08;95817.00;5038694;28;20221;-70
2023/04/21 09:05:25;;;;;;;6.70;2.23;;;;;;;12.14;100.00;95819.88;5039150;28;20252;-70
2023/04/21 09:07:55;;;;;;;2.20;2.00;;;;;;;12.14;100.00;95823.34;5037293;28;20219;-70
2023/04/21 09:10:25;;;;;;;2.93;1.60;;;;;;;12.46;100.00;95826.13;5037460;28;20202;-70
2023/04/21 09:12:52;;;;;;;3.87;1.83;;;;;;;12.37;96.18;95822.03;5038160;28;20312;-70
2023/04/21 09:15:20;;;;;;;1.73;1.40;;;;;;;12.63;98.75;95827.38;5037467;28;20494;-70
2023/04/21 09:17:47;;;;;;;4.07;3.13;;;;;;;12.81;97.89;95825.81;5037811;28;20638;-70
2023/04/21 09:20:17;;;;;;;2.60;1.45;;;;;;;13.02;97.61;95820.41;5039093;28;20228;-69
2023/04/21 09:22:44;;;;;;;3.40;1.67;;;;;;;12.64;98.14;95820.25;5038860;28;21006;-70
2023/04/21 09:25:16;;;;;;;3.95;2.38;;;;;;;13.09;98.77;95813.25;5037578;28;20201;-70
2023/04/21 09:27:43;;;;;;;10.00;1.90;;;;;;;13.33;96.80;95810.03;5038080;28;20193;-70
2023/04/21 09:30:10;;;;;;;3.15;1.95;;;;;;;13.20;98.77;95812.66;5037362;28;20201;-70
2023/04/21 09:32:37;;;;;;;2.70;1.35;;;;;;;13.43;86.85;95811.25;5038272;28;20938;-71
2023/04/21 09:35:05;;;;;;;1.52;1.42;;;;;;;13.26;88.65;95818.97;5038664;28;20213;-71
2023/04/21 09:37:33;;;;;;;1.20;1.10;;;;;;;13.66;90.42;95808.97;5038429;28;20213;-69
2023/04/21 09:40:00;;;;;;;2.75;2.35;;;;;;;13.57;90.72;95809.41;5038075;28;20201;-70
2023/04/21 09:42:29;;;;;;;4.25;1.42;;;;;;;13.44;94.11;95804.94;5037198;28;20209;-71
2023/04/21 09:44:56;;;;;;;5.25;3.13;;;;;;;13.47;94.22;95801.88;5038472;28;20205;-71
2023/04/21 09:47:23;;;;;;;2.45;1.85;;;;;;;13.44;94.44;95804.94;5037626;28;20236;-71
2023/04/21 09:49:52;;;;;;;3.25;1.70;;;;;;;13.49;91.98;95809.59;5038358;28;20197;-70
2023/04/21 09:52:19;;;;;;;2.05;1.60;;;;;;;13.34;94.94;95808.19;5037590;28;20209;-70
2023/04/21 09:54:57;;;;;;;4.00;2.00;;;;;;;13.40;96.32;95805.53;5038051;28;20228;-70
2023/04/21 09:57:25;;;;;;;3.03;1.52;;;;;;;13.48;92.74;95803.50;5037610;28;20205;-70
2023/04/21 09:59:56;;;;;;;1.20;1.10;;;;;;;13.78;92.13;95806.50;5038180;28;20201;-70
2023/04/21 10:02:25;;;;;;;3.00;2.00;;;;;;;13.60;94.05;95790.47;5037847;28;20194;-70
2023/04/21 10:04:52;;;;;;;3.72;1.90;;;;;;;13.65;93.15;95791.47;5037800;28;20197;-70
2023/04/21 10:07:19;;;;;;;4.72;1.27;;;;;;;14.16;85.51;95797.69;5037935;28;20228;-71
2023/04/21 10:09:50;;;;;;;4.05;1.90;;;;;;;14.75;86.95;95791.91;5038170;28;20205;-70
2023/04/21 10:12:18;;;;;;;2.50;0.90;;;;;;;15.00;80.40;95798.06;5037885;28;20727;-71
2023/04/21 10:14:45;;;;;;;4.10;2.30;;;;;;;14.66;89.95;95795.00;5037330;28;20228;-70
2023/04/21 10:17:11;;;;;;;2.80;2.40;;;;;;;14.74;84.00;95798.22;5037845;28;20197;-71
2023/04/21 10:19:48;;;;;;;2.03;1.50;;;;;;;15.01;91.63;95798.88;5037693;28;20212;-71
2023/04/21 10:22:26;;;;;;;1.60;1.50;;;;;;;14.88;86.83;95793.63;5037822;28;20668;-70
2023/04/21 10:24:55;;;;;;;3.38;1.95;;;;;;;14.84;88.51;95790.63;5037818;28;20238;-70
2023/04/21 10:27:31;;;;;;;2.90;1.75;;;;;;;14.69;85.11;95789.28;5037657;28;20224;-71
2023/04/21 10:29:58;;;;;;;3.58;1.80;;;;;;;14.72;84.97;95789.66;5037068;28;20211;-72
2023/04/21 10:32:40;;;;;;;2.63;1.27;;;;;;;14.90;87.31;95795.06;5037593;28;20567;-70
2023/04/21 10:35:09;;;;;;;2.85;1.63;;;;;;;14.86;79.74;95801.00;5038233;28;20208;-70
2023/04/21 10:37:36;;;;;;;1.85;1.20;;;;;;;15.09;77.74;95795.97;5036653;28;20209;-71
2023/04/21 10:40:08;;;;;;;1.83;1.08;;;;;;;15.53;75.37;95796.63;5037157;28;20197;-70
2023/04/21 10:42:36;;;;;;;3.67;2.03;;;;;;;15.65;76.01;95781.63;5037497;28;20209;-71
2023/04/21 10:45:08;;;;;;;2.42;1.70;;;;;;;16.10;77.14;95786.47;5037198;28;20209;-70
2023/04/21 10:47:47;;;;;;;3.83;1.55;;;;;;;16.04;78.32;95777.53;5036787;28;20745;-71
2023/04/21 10:50:22;;;;;;;2.08;1.75;;;;;;;16.21;81.24;95786.53;5037253;28;20228;-71
2023/04/21 10:52:55;;;;;;;3.25;1.77;;;;;;;16.13;81.84;95786.84;5036986;28;20228;-70
2023/04/21 10:55:26;;;;;;;2.95;1.58;;;;;;;15.96;83.40;95780.50;5037433;28;20220;-71
2023/04/21 10:57:53;;;;;;;1.65;1.20;;;;;;;15.97;81.22;95779.47;5036790;28;20588;-71
2023/04/21 11:00:21;;;;;;;2.67;1.33;;;;;;;15.93;85.89;95785.44;5036721;28;20235;-70
2023/04/21 11:02:56;;;;;;;2.28;1.85;;;;;;;15.67;83.32;95776.91;5036881;28;20278;-70
2023/04/21 11:05:35;;;;;;;1.30;1.20;;;;;;;15.84;86.43;95764.69;5036657;28;20196;-69
2023/04/21 11:08:06;;;;;;;2.47;1.40;;;;;;;15.71;83.42;95765.63;5036681;28;20228;-70
2023/04/21 11:10:51;;;;;;;2.33;1.30;;;;;;;15.94;84.91;95774.56;5036786;28;20204;-71
2023/04/21 11:13:20;;;;;;;3.05;1.77;;;;;;;15.58;84.66;95764.94;5035142;28;20512;-71
2023/04/21 11:15:57;;;;;;;2.13;1.35;;;;;;;16.31;83.30;95762.94;5036508;28;20201;-70
2023/04/21 11:18:37;;;;;;;2.30;1.73;;;;;;;15.39;82.82;95760.63;5036192;28;20209;-70
2023/04/21 11:21:10;;;;;;;2.85;1.80;;;;;;;16.01;83.16;95764.69;5036507;28;20201;-71
2023/04/21 11:23:40;;;;;;;1.33;0.77;;;;;;;16.19;78.57;95770.00;5036450;28;20584;-70
2023/04/21 11:26:08;;;;;;;1.50;0.93;;;;;;;16.83;77.64;95768.38;5035985;28;20701;-71
2023/04/21 11:28:34;;;;;;;1.35;1.25;;;;;;;16.90;79.78;95757.63;5036274;28;20212;-70
2023/04/21 11:31:01;;;;;;;1.63;1.42;;;;;;;17.26;83.22;95761.81;5036449;28;20201;-70
2023/04/21 11:33:28;;;;;;;4.55;1.17;;;;;;;17.30;80.65;95757.66;5036279;28;20221;-70